New Preston Marble Dale, Connecticut
Current Conditions -  °F | °C
As of 6:35 AM on Thursday 18 Dec 2014 (Local Time) from KOXC Reporting Station
Overcast Overcast  
Wind Chill: 28°   Ceiling: 9000
Heat Index: 36°   Visibility: 10mi
Dew Point: 25°   Wind: 10mph
Humidity: 65%   Direction: 290°WNW
Pressure: 29.84"   Gusts: 21mph
Location:  41.69°N, 73.35°W
Report Text: KOXC 181035Z 29009G18KT 10SM FEW060 BKN090 OVC100 02/M04 A2984 RMK AO1
Loading
Personal Weather Stations






























Interactive Weather Map New forecast layout! Learn more

10-Day Weather Forecast

Advertisements
Track Severe Weather on mobile